createdAt,value
2023-12-08T00:02:20.750Z,2.11
2023-12-08T00:04:47.449Z,2.11
2023-12-08T00:07:14.641Z,2.11
2023-12-08T00:09:41.460Z,2.11
2023-12-08T00:12:08.162Z,2.12
2023-12-08T00:14:34.968Z,2.11
2023-12-08T00:17:01.529Z,2.11
2023-12-08T00:19:28.236Z,2.12
2023-12-08T00:21:54.799Z,2.12
2023-12-08T00:24:21.457Z,2.12
2023-12-08T00:26:48.164Z,2.12
2023-12-08T00:29:15.070Z,2.12
2023-12-08T00:31:42.177Z,2.13
2023-12-08T00:34:09.171Z,2.13
2023-12-08T00:36:36.088Z,2.14
2023-12-08T00:39:02.933Z,2.13
2023-12-08T00:41:29.837Z,2.14
2023-12-08T00:43:56.455Z,2.13
2023-12-08T00:46:23.048Z,2.14
2023-12-08T00:48:49.865Z,2.13
2023-12-08T00:51:16.796Z,2.14
2023-12-08T00:53:43.751Z,2.12
2023-12-08T00:56:11.530Z,2.14
2023-12-08T00:58:38.760Z,2.12
2023-12-08T01:01:06.167Z,2.12
2023-12-08T01:03:33.111Z,2.12
2023-12-08T01:05:59.788Z,2.14
2023-12-08T01:08:26.410Z,2.13
2023-12-08T01:10:53.279Z,2.13
2023-12-08T01:13:20.994Z,2.12
2023-12-08T01:15:48.233Z,2.13
2023-12-08T01:18:15.052Z,2.14
2023-12-08T01:20:43.374Z,2.15
2023-12-08T01:23:10.072Z,2.16
2023-12-08T01:25:36.776Z,2.15
2023-12-08T01:28:03.472Z,2.15
2023-12-08T01:30:30.333Z,2.14
2023-12-08T01:32:57.285Z,2.16
2023-12-08T01:35:23.953Z,2.15
2023-12-08T01:37:50.678Z,2.16
2023-12-08T01:40:17.426Z,2.17
2023-12-08T01:42:45.912Z,2.17
2023-12-08T01:45:12.588Z,2.18
2023-12-08T01:47:40.984Z,2.17
2023-12-08T01:50:09.906Z,2.18
2023-12-08T01:52:37.821Z,2.18
2023-12-08T01:55:05.305Z,2.18
2023-12-08T01:57:32.330Z,2.18
2023-12-08T02:00:01.325Z,2.19
2023-12-08T02:02:28.483Z,2.19
2023-12-08T02:04:59.272Z,2.20
2023-12-08T02:07:27.452Z,2.21
2023-12-08T02:09:54.749Z,2.21
2023-12-08T02:12:21.741Z,2.22
2023-12-08T02:14:52.389Z,2.22
2023-12-08T02:17:26.421Z,2.24
2023-12-08T02:19:54.435Z,2.24
2023-12-08T02:22:24.514Z,2.23
2023-12-08T02:24:51.902Z,2.25
2023-12-08T02:27:18.712Z,2.25
2023-12-08T02:29:45.503Z,2.26
2023-12-08T02:32:24.050Z,2.27
2023-12-08T02:34:53.339Z,2.27
2023-12-08T02:37:21.460Z,2.28
2023-12-08T02:39:49.843Z,2.29
2023-12-08T02:42:16.698Z,2.27
2023-12-08T02:44:43.333Z,2.28
2023-12-08T02:47:09.950Z,2.27
2023-12-08T02:49:36.851Z,2.28
2023-12-08T02:52:03.832Z,2.26
2023-12-08T02:54:30.706Z,2.26
2023-12-08T02:56:57.483Z,2.25
2023-12-08T02:59:24.166Z,2.21
2023-12-08T03:02:35.306Z,2.22
2023-12-08T03:05:02.089Z,2.19
2023-12-08T03:07:29.256Z,2.19
2023-12-08T03:09:56.189Z,2.18
2023-12-08T03:12:22.996Z,2.18
2023-12-08T03:14:49.708Z,2.15
2023-12-08T03:17:16.955Z,2.15
2023-12-08T03:19:43.935Z,2.13
2023-12-08T03:22:13.202Z,2.13
2023-12-08T03:24:39.923Z,2.11
2023-12-08T03:27:06.651Z,2.12
2023-12-08T03:29:33.872Z,2.12
2023-12-08T03:32:00.676Z,2.10
2023-12-08T03:34:27.760Z,2.09
2023-12-08T03:36:54.524Z,2.09
2023-12-08T03:39:21.502Z,2.07
2023-12-08T03:41:48.151Z,2.06
2023-12-08T03:44:16.258Z,2.06
2023-12-08T03:46:45.677Z,2.05
2023-12-08T03:49:12.545Z,2.05
2023-12-08T03:51:39.166Z,2.04
2023-12-08T03:54:05.846Z,2.05
2023-12-08T03:56:32.465Z,2.05
2023-12-08T03:58:59.013Z,2.03
2023-12-08T04:01:27.458Z,2.02
2023-12-08T04:03:54.097Z,2.02
2023-12-08T04:06:21.049Z,2.03
2023-12-08T04:08:48.173Z,2.02
2023-12-08T04:11:14.815Z,2.02
2023-12-08T04:13:42.691Z,2.02
2023-12-08T04:16:09.637Z,2.01
2023-12-08T04:18:37.011Z,2.01
2023-12-08T04:21:03.932Z,2.00
2023-12-08T04:23:30.480Z,2.01
2023-12-08T04:25:58.839Z,2.00
2023-12-08T04:28:26.198Z,2.01
2023-12-08T04:30:53.032Z,2.00
2023-12-08T04:33:20.104Z,2.00
2023-12-08T04:35:46.834Z,2.01
2023-12-08T04:38:13.735Z,2.02
2023-12-08T04:40:40.612Z,2.02
2023-12-08T04:43:07.400Z,2.01
2023-12-08T04:45:34.024Z,2.01
2023-12-08T04:48:00.849Z,2.01
2023-12-08T04:50:27.972Z,2.01
2023-12-08T04:52:54.615Z,2.01
2023-12-08T04:55:21.202Z,2.01
2023-12-08T04:57:48.110Z,1.99
2023-12-08T05:00:14.998Z,2.01
2023-12-08T05:02:41.715Z,2.01
2023-12-08T05:05:08.506Z,2.03
2023-12-08T05:07:35.300Z,2.04
2023-12-08T05:10:02.099Z,2.03
2023-12-08T05:12:28.799Z,2.03
2023-12-08T05:14:55.447Z,2.03
2023-12-08T05:17:22.468Z,2.04
2023-12-08T05:19:49.281Z,2.03
2023-12-08T05:22:16.157Z,2.05
2023-12-08T05:24:42.795Z,2.03
2023-12-08T05:27:09.937Z,2.07
2023-12-08T05:29:36.771Z,2.06
2023-12-08T05:32:03.645Z,2.06
2023-12-08T05:34:30.487Z,2.06
2023-12-08T05:36:57.720Z,2.07
2023-12-08T05:39:24.400Z,2.07
2023-12-08T05:41:51.309Z,2.09
2023-12-08T05:44:17.928Z,2.07
2023-12-08T05:46:44.446Z,2.06
2023-12-08T05:49:11.422Z,2.09
2023-12-08T05:51:38.380Z,2.09
2023-12-08T05:54:05.074Z,2.10
2023-12-08T05:56:32.578Z,2.10
2023-12-08T05:58:59.202Z,2.12
2023-12-08T06:01:27.231Z,2.12
2023-12-08T06:03:53.956Z,2.12
2023-12-08T06:06:20.872Z,2.12
2023-12-08T06:08:47.860Z,2.13
2023-12-08T06:11:14.617Z,2.13
2023-12-08T06:13:41.519Z,2.13
2023-12-08T06:16:08.393Z,2.14
2023-12-08T06:18:35.100Z,2.15
2023-12-08T06:21:01.848Z,2.15
2023-12-08T06:23:28.656Z,2.17
2023-12-08T06:25:55.457Z,2.18
2023-12-08T06:28:22.177Z,2.17
2023-12-08T06:30:48.892Z,2.18
2023-12-08T06:33:15.560Z,2.19
2023-12-08T06:35:42.305Z,2.20
2023-12-08T06:38:09.369Z,2.22
2023-12-08T06:40:36.130Z,2.22
2023-12-08T06:43:04.410Z,2.23
2023-12-08T06:45:31.251Z,2.25
2023-12-08T06:48:00.244Z,2.25
2023-12-08T06:50:31.805Z,2.27
2023-12-08T06:52:58.652Z,2.26
2023-12-08T06:55:25.295Z,2.27
2023-12-08T06:57:52.180Z,2.26
2023-12-08T07:00:19.230Z,2.27
2023-12-08T07:02:46.422Z,2.28
2023-12-08T07:05:13.188Z,2.30
2023-12-08T07:07:39.816Z,2.30
2023-12-08T07:10:07.141Z,2.30
2023-12-08T07:12:34.308Z,2.31
2023-12-08T07:15:00.979Z,2.31
2023-12-08T07:17:28.550Z,2.33
2023-12-08T07:19:57.584Z,2.35
2023-12-08T07:22:24.434Z,2.32
2023-12-08T07:24:52.021Z,2.35
2023-12-08T07:27:18.710Z,2.36
2023-12-08T07:29:45.526Z,2.38
2023-12-08T07:32:12.223Z,2.39
2023-12-08T07:34:40.231Z,2.40
2023-12-08T07:39:48.027Z,2.52
2023-12-08T07:45:16.828Z,2.68
2023-12-08T07:47:45.774Z,2.75
2023-12-08T07:50:23.624Z,2.83
2023-12-08T07:52:53.252Z,2.93
2023-12-08T07:55:19.973Z,3.01
2023-12-08T07:57:49.853Z,3.08
2023-12-08T08:00:16.946Z,3.14
2023-12-08T08:02:44.577Z,3.21
2023-12-08T08:05:11.371Z,3.27
2023-12-08T08:07:38.306Z,3.34
2023-12-08T08:10:05.491Z,3.40
2023-12-08T08:12:33.610Z,3.46
2023-12-08T08:15:00.757Z,3.51
2023-12-08T08:17:27.561Z,3.56
2023-12-08T08:19:54.488Z,3.63
2023-12-08T08:22:30.129Z,3.69
2023-12-08T08:25:02.762Z,3.74
2023-12-08T08:27:30.939Z,3.80
2023-12-08T08:29:58.153Z,3.83
2023-12-08T08:32:24.943Z,3.88
2023-12-08T08:34:56.114Z,3.92
2023-12-08T08:37:26.611Z,3.96
2023-12-08T08:39:55.719Z,4.00
2023-12-08T08:42:57.433Z,4.07
2023-12-08T08:45:25.874Z,4.09
2023-12-08T08:48:06.530Z,4.14
2023-12-08T08:50:43.566Z,4.16
2023-12-08T08:53:15.884Z,4.19
2023-12-08T08:55:43.237Z,4.23
2023-12-08T08:58:09.850Z,4.27
2023-12-08T09:00:36.642Z,4.30
2023-12-08T09:03:04.700Z,4.35
2023-12-08T09:05:36.728Z,4.38
2023-12-08T09:08:07.619Z,4.39
2023-12-08T09:10:34.336Z,4.40
2023-12-08T09:13:01.382Z,4.44
2023-12-08T09:15:29.042Z,4.43
2023-12-08T09:17:57.499Z,4.46
2023-12-08T09:20:25.137Z,4.49
2023-12-08T09:23:00.513Z,4.49
2023-12-08T09:25:41.196Z,4.53
2023-12-08T09:28:10.472Z,4.58
2023-12-08T09:30:37.592Z,4.57
2023-12-08T09:33:05.992Z,4.60
2023-12-08T09:35:34.602Z,4.63
2023-12-08T09:38:01.517Z,4.63
2023-12-08T09:40:29.173Z,4.62
2023-12-08T09:43:07.829Z,4.65
2023-12-08T09:45:35.628Z,4.67
2023-12-08T09:48:07.630Z,4.72
2023-12-08T09:50:37.656Z,4.74
2023-12-08T09:53:09.241Z,4.78
2023-12-08T09:55:39.553Z,4.82
2023-12-08T09:58:08.339Z,4.82
2023-12-08T10:00:43.763Z,4.82
2023-12-08T10:03:13.957Z,4.87
2023-12-08T10:05:50.893Z,4.89
2023-12-08T10:08:39.219Z,4.90
2023-12-08T10:11:09.724Z,4.94
2023-12-08T10:13:36.708Z,4.96
2023-12-08T10:18:46.414Z,4.96
2023-12-08T10:24:05.816Z,5.05
2023-12-08T10:26:36.109Z,5.06
2023-12-08T10:29:02.977Z,5.07
2023-12-08T10:31:29.817Z,5.13
2023-12-08T10:34:01.131Z,5.17
2023-12-08T10:36:28.182Z,5.18
2023-12-08T10:38:55.033Z,5.21
2023-12-08T10:41:22.530Z,5.26
2023-12-08T10:43:54.755Z,5.32
2023-12-08T10:46:22.684Z,5.39
2023-12-08T10:48:50.289Z,5.36
2023-12-08T10:51:19.271Z,5.41
2023-12-08T10:53:46.477Z,5.41
2023-12-08T10:56:17.163Z,5.47
2023-12-08T10:58:46.251Z,5.50
2023-12-08T11:01:15.940Z,5.53
2023-12-08T11:03:53.962Z,5.55
2023-12-08T11:06:31.042Z,5.57
2023-12-08T11:09:05.037Z,5.56
2023-12-08T11:11:35.493Z,5.60
2023-12-08T11:14:07.197Z,5.62
2023-12-08T11:16:41.917Z,5.66
2023-12-08T11:19:36.915Z,5.68
2023-12-08T11:22:18.726Z,5.76
2023-12-08T11:24:49.412Z,5.76
2023-12-08T11:27:29.128Z,5.80
2023-12-08T11:30:47.263Z,5.82
2023-12-08T11:33:40.465Z,5.88
2023-12-08T11:36:31.339Z,5.91
2023-12-08T11:38:57.909Z,5.94
2023-12-08T11:41:26.534Z,5.99
2023-12-08T11:43:53.737Z,5.99
2023-12-08T11:46:20.417Z,6.06
2023-12-08T11:48:50.048Z,6.06
2023-12-08T11:51:17.373Z,6.08
2023-12-08T11:54:00.371Z,6.07
2023-12-08T11:56:47.524Z,6.12
2023-12-08T11:59:24.997Z,6.14
2023-12-08T12:01:52.340Z,6.16
2023-12-08T12:04:19.329Z,6.21
2023-12-08T12:06:54.952Z,6.21
2023-12-08T12:09:22.322Z,6.24
2023-12-08T12:11:53.160Z,6.30
2023-12-08T12:14:26.049Z,6.32
2023-12-08T12:16:53.196Z,6.35
2023-12-08T12:19:25.562Z,6.36
2023-12-08T12:21:52.611Z,6.38
2023-12-08T12:24:19.278Z,6.47
2023-12-08T12:26:46.259Z,6.45
2023-12-08T12:29:15.522Z,6.49
2023-12-08T12:31:44.101Z,6.54
2023-12-08T12:34:12.390Z,6.57
2023-12-08T12:36:40.020Z,6.60
2023-12-08T12:39:07.282Z,6.60
2023-12-08T12:41:34.384Z,6.64
2023-12-08T12:44:03.086Z,6.67
2023-12-08T12:46:32.684Z,6.71
2023-12-08T12:48:59.962Z,6.76
2023-12-08T12:51:38.175Z,6.81
2023-12-08T12:54:05.461Z,6.84
2023-12-08T12:56:33.890Z,6.86
2023-12-08T12:59:12.551Z,6.90
2023-12-08T13:05:47.072Z,6.98
2023-12-08T13:08:16.988Z,7.03
2023-12-08T13:10:47.136Z,7.04
2023-12-08T13:13:52.440Z,7.06
2023-12-08T13:16:48.182Z,7.10
2023-12-08T13:20:40.744Z,7.17
2023-12-08T13:23:11.705Z,7.18
2023-12-08T13:28:45.054Z,7.25
2023-12-08T13:31:17.166Z,7.24
2023-12-08T13:33:59.238Z,7.27
2023-12-08T13:36:30.717Z,7.29
2023-12-08T13:41:53.285Z,7.39
2023-12-08T13:44:21.101Z,7.43
2023-12-08T13:47:01.395Z,7.44
2023-12-08T13:49:38.397Z,7.47
2023-12-08T13:53:08.452Z,7.54
2023-12-08T13:55:39.303Z,7.55
2023-12-08T13:58:33.844Z,7.59
2023-12-08T14:12:13.125Z,7.75
2023-12-08T14:28:36.193Z,7.92
2023-12-08T14:34:57.463Z,7.98
2023-12-08T14:40:45.638Z,8.01
2023-12-08T14:44:02.668Z,8.05
2023-12-08T14:46:46.858Z,8.06
2023-12-08T15:01:52.532Z,8.21
2023-12-08T15:08:44.877Z,8.25
2023-12-08T15:11:11.773Z,8.26
2023-12-08T15:16:31.787Z,8.29
2023-12-08T15:19:12.594Z,8.30
2023-12-08T15:21:40.520Z,8.36
2023-12-08T15:24:10.201Z,8.35
2023-12-08T15:26:41.689Z,8.38
2023-12-08T15:29:11.804Z,8.39
2023-12-08T15:31:40.289Z,8.41
2023-12-08T15:34:07.599Z,8.41
2023-12-08T15:36:34.837Z,8.41
2023-12-08T15:39:01.830Z,8.42
2023-12-08T15:41:33.276Z,8.44
2023-12-08T15:43:59.858Z,8.46
2023-12-08T15:46:26.414Z,8.45
2023-12-08T15:48:53.326Z,8.46
2023-12-08T15:51:20.598Z,8.45
2023-12-08T15:53:47.898Z,8.43
2023-12-08T15:56:14.885Z,8.46
2023-12-08T15:58:46.709Z,8.48
2023-12-08T16:01:21.078Z,8.46
2023-12-08T16:09:45.601Z,8.45
2023-12-08T16:12:13.004Z,8.47
2023-12-08T16:14:42.469Z,8.53
2023-12-08T16:17:09.304Z,8.48
2023-12-08T16:19:35.987Z,8.51
2023-12-08T16:22:02.903Z,8.48
2023-12-08T16:24:29.743Z,8.50
2023-12-08T16:26:59.197Z,8.56
2023-12-08T16:29:26.030Z,8.56
2023-12-08T16:31:52.736Z,8.57
2023-12-08T16:34:19.557Z,8.59
2023-12-08T16:36:46.939Z,8.57
2023-12-08T16:39:16.568Z,8.58
2023-12-08T16:41:48.678Z,8.61
2023-12-08T16:44:15.900Z,8.61
2023-12-08T16:46:42.758Z,8.59
2023-12-08T16:49:11.041Z,8.62
2023-12-08T16:51:38.169Z,8.65
2023-12-08T16:54:05.310Z,8.68
2023-12-08T16:56:34.839Z,8.65
2023-12-08T17:05:11.238Z,8.70
2023-12-08T17:31:07.021Z,8.83
2023-12-08T17:33:33.830Z,8.82
2023-12-08T17:36:00.928Z,8.85
2023-12-08T17:38:30.452Z,8.80
2023-12-08T17:40:57.202Z,8.82
2023-12-08T17:43:24.514Z,8.81
2023-12-08T17:45:53.949Z,8.83
2023-12-08T17:48:20.658Z,8.82
2023-12-08T17:50:48.365Z,8.83
2023-12-08T17:53:15.003Z,8.81
2023-12-08T17:55:41.815Z,8.77
2023-12-08T17:58:08.441Z,8.81
2023-12-08T18:00:35.302Z,8.82
2023-12-08T18:03:04.332Z,8.82
2023-12-08T18:05:31.296Z,8.81
2023-12-08T18:07:58.016Z,8.79
2023-12-08T18:10:24.805Z,8.73
2023-12-08T18:12:51.806Z,8.81
2023-12-08T18:15:19.034Z,8.80
2023-12-08T18:17:46.165Z,8.79
2023-12-08T18:20:14.082Z,8.76
2023-12-08T18:22:41.485Z,8.78
2023-12-08T18:25:11.173Z,8.78
2023-12-08T18:27:52.874Z,8.77
2023-12-08T18:30:25.333Z,8.78
2023-12-08T18:32:52.164Z,8.80
2023-12-08T18:35:19.087Z,8.82
2023-12-08T18:37:46.536Z,8.83
2023-12-08T18:40:13.946Z,8.81
2023-12-08T18:42:40.784Z,8.82
2023-12-08T18:45:08.238Z,8.83
2023-12-08T18:47:34.977Z,8.86
2023-12-08T18:50:02.085Z,8.85
2023-12-08T18:52:29.336Z,8.81
2023-12-08T18:54:56.769Z,8.88
2023-12-08T18:57:23.842Z,8.85
2023-12-08T18:59:50.654Z,8.85
2023-12-08T19:02:17.260Z,8.87
2023-12-08T19:04:44.523Z,8.88
2023-12-08T19:07:11.175Z,8.85
2023-12-08T19:09:38.480Z,8.82
2023-12-08T19:12:05.643Z,8.84
2023-12-08T19:14:32.715Z,8.88
2023-12-08T19:16:59.366Z,8.81
2023-12-08T19:19:26.391Z,8.81
2023-12-08T19:21:53.563Z,8.84
2023-12-08T19:24:20.338Z,8.88
2023-12-08T19:26:47.205Z,8.85
2023-12-08T19:29:13.860Z,8.84
2023-12-08T19:31:40.580Z,8.84
2023-12-08T19:34:07.555Z,8.82
2023-12-08T19:36:34.290Z,8.83
2023-12-08T19:39:01.303Z,8.83
2023-12-08T19:41:28.299Z,8.84
2023-12-08T19:43:55.873Z,8.85
2023-12-08T19:46:22.637Z,8.82
2023-12-08T19:48:49.543Z,8.84
2023-12-08T19:51:16.273Z,8.81
2023-12-08T19:53:43.114Z,8.84
2023-12-08T19:56:10.251Z,8.88
2023-12-08T19:58:38.301Z,8.84
2023-12-08T20:01:06.818Z,8.79
2023-12-08T20:03:33.669Z,8.82
2023-12-08T20:06:00.695Z,8.79
2023-12-08T20:08:28.311Z,8.78
2023-12-08T20:10:57.856Z,8.79
2023-12-08T20:13:24.704Z,8.78
2023-12-08T20:15:51.429Z,8.75
2023-12-08T20:18:18.212Z,8.71
2023-12-08T20:20:44.972Z,8.73
2023-12-08T20:23:14.837Z,8.69
2023-12-08T20:25:41.616Z,8.68
2023-12-08T20:28:09.598Z,8.63
2023-12-08T20:30:36.737Z,8.64
2023-12-08T20:33:03.708Z,8.68
2023-12-08T20:35:30.692Z,8.62
2023-12-08T20:37:57.529Z,8.61
2023-12-08T20:40:24.265Z,8.56
2023-12-08T20:42:51.128Z,8.60
2023-12-08T20:45:17.972Z,8.61
2023-12-08T20:47:45.401Z,8.60
2023-12-08T20:50:12.900Z,8.60
2023-12-08T20:52:39.992Z,8.56
2023-12-08T20:55:06.943Z,8.61
2023-12-08T20:57:33.785Z,8.61
2023-12-08T21:00:00.697Z,8.60
2023-12-08T21:02:27.619Z,8.57
2023-12-08T21:04:54.446Z,8.54
2023-12-08T21:07:21.230Z,8.55
2023-12-08T21:09:48.031Z,8.46
2023-12-08T21:12:14.759Z,8.42
2023-12-08T21:14:41.451Z,8.33
2023-12-08T21:17:08.186Z,8.29
2023-12-08T21:19:35.140Z,8.24
2023-12-08T21:22:04.014Z,8.19
2023-12-08T21:24:31.203Z,8.14
2023-12-08T21:26:58.721Z,8.06
2023-12-08T21:29:25.669Z,7.99
2023-12-08T21:31:53.128Z,7.93
2023-12-08T21:34:20.188Z,7.87
2023-12-08T21:36:46.991Z,7.84
2023-12-08T21:39:13.956Z,7.79
2023-12-08T21:41:40.919Z,7.76
2023-12-08T21:44:08.025Z,7.68
2023-12-08T21:46:35.612Z,7.63
2023-12-08T21:49:25.728Z,7.60
2023-12-08T21:51:52.678Z,7.55
2023-12-08T21:54:21.218Z,7.54
2023-12-08T21:56:48.087Z,7.52
2023-12-08T21:59:15.125Z,7.48
2023-12-08T22:08:56.464Z,7.40
2023-12-08T22:11:23.348Z,7.39
2023-12-08T22:13:50.116Z,7.38
2023-12-08T22:16:16.799Z,7.35
2023-12-08T22:18:43.869Z,7.32
2023-12-08T22:21:13.611Z,7.31
2023-12-08T22:23:41.121Z,7.28
2023-12-08T22:26:09.852Z,7.27
2023-12-08T22:28:37.098Z,7.27
2023-12-08T22:31:24.434Z,7.24
2023-12-08T22:33:51.893Z,7.23
2023-12-08T22:36:18.866Z,7.22
2023-12-08T22:38:45.775Z,7.19
2023-12-08T22:41:12.448Z,7.17
2023-12-08T22:43:39.882Z,7.16
2023-12-08T22:46:10.062Z,7.16
2023-12-08T22:48:40.444Z,7.16
2023-12-08T22:51:14.432Z,7.15
2023-12-08T22:53:44.817Z,7.14
2023-12-08T22:56:12.528Z,7.15
2023-12-08T23:01:40.068Z,7.16
2023-12-08T23:04:12.697Z,7.16
2023-12-08T23:06:40.158Z,7.18
2023-12-08T23:11:49.275Z,7.17
2023-12-08T23:14:16.023Z,7.17
2023-12-08T23:16:51.001Z,7.18
2023-12-08T23:19:19.591Z,7.19
2023-12-08T23:21:46.491Z,7.18
2023-12-08T23:24:13.212Z,7.17
2023-12-08T23:26:45.716Z,7.19
2023-12-08T23:37:25.834Z,7.19
2023-12-08T23:42:33.678Z,7.17
2023-12-08T23:45:00.954Z,7.17
2023-12-08T23:47:28.074Z,7.15
2023-12-08T23:49:54.920Z,7.14
2023-12-08T23:52:22.237Z,7.16
2023-12-08T23:54:48.988Z,7.13
